Time;durP1;ratioP1;P1;durP2;ratioP2;P2;SDS_P1;SDS_P2;PMS_P1;PMS_P2;Temp;Humidity;BMP_temperature;BMP_pressure;BME280_temperature;BME280_humidity;BME280_pressure;Samples;Min_cycle;Max_cycle;Signal;HPM_P1;HPM_P2
2024/04/03 00:00:52;;;;;;;109.53;11.68;;;;;;;;;;5037949;28;20043;-76
2024/04/03 00:03:18;;;;;;;108.85;10.63;;;;;;;;;;5037490;28;20045;-76
2024/04/03 00:05:44;;;;;;;111.95;11.07;;;;;;;;;;5021386;28;20399;-76
2024/04/03 00:08:10;;;;;;;103.00;12.35;;;;;;;;;;5020975;28;20049;-76
2024/04/03 00:10:35;;;;;;;109.68;11.55;;;;;;;;;;5021497;28;20072;-76
2024/04/03 00:13:01;;;;;;;113.18;11.75;;;;;;;;;;5021237;28;20067;-76
2024/04/03 00:15:27;;;;;;;105.72;12.50;;;;;;;;;;5020880;28;20434;-77
2024/04/03 00:17:56;;;;;;;109.15;11.10;;;;;;;;;;5037560;28;20468;-76
2024/04/03 00:20:22;;;;;;;126.78;12.73;;;;;;;;;;5020812;28;20041;-76
2024/04/03 00:22:48;;;;;;;111.30;11.82;;;;;;;;;;5037555;28;20036;-77
2024/04/03 00:25:14;;;;;;;123.07;12.57;;;;;;;;;;5036999;28;20438;-77
2024/04/03 00:27:40;;;;;;;127.60;13.45;;;;;;;;;;5037051;28;20049;-76
2024/04/03 00:30:07;;;;;;;134.73;13.65;;;;;;;;;;5020433;28;20064;-77
2024/04/03 00:32:34;;;;;;;122.00;12.70;;;;;;;;;;5037456;28;20044;-77
2024/04/03 00:35:00;;;;;;;108.90;11.57;;;;;;;;;;5037401;28;20053;-76
2024/04/03 00:37:26;;;;;;;126.63;14.55;;;;;;;;;;5020171;28;20045;-77
2024/04/03 00:39:53;;;;;;;139.30;13.82;;;;;;;;;;5037373;28;20041;-77
2024/04/03 00:42:20;;;;;;;118.50;13.10;;;;;;;;;;5053335;28;20472;-76
2024/04/03 00:44:49;;;;;;;123.00;12.23;;;;;;;;;;5053630;28;20059;-77
2024/04/03 00:47:16;;;;;;;126.22;13.93;;;;;;;;;;5036302;28;20486;-77
2024/04/03 00:49:45;;;;;;;132.10;13.73;;;;;;;;;;5037190;28;20044;-77
2024/04/03 00:52:12;;;;;;;145.35;14.57;;;;;;;;;;5036553;28;20057;-76
2024/04/03 00:54:40;;;;;;;127.32;14.13;;;;;;;;;;5020336;28;20498;-76
2024/04/03 00:57:06;;;;;;;87.55;10.07;;;;;;;;;;5036683;28;20041;-77
2024/04/03 00:59:32;;;;;;;109.65;12.98;;;;;;;;;;5020278;28;20061;-77
2024/04/03 01:01:58;;;;;;;147.63;14.40;;;;;;;;;;5036811;28;20044;-76
2024/04/03 01:04:23;;;;;;;147.90;15.20;;;;;;;;;;5036423;28;20052;-77
2024/04/03 01:06:49;;;;;;;130.05;14.13;;;;;;;;;;5036651;28;20098;-77
2024/04/03 01:09:15;;;;;;;151.68;15.38;;;;;;;;;;5036299;28;20422;-77
2024/04/03 01:11:41;;;;;;;147.45;14.02;;;;;;;;;;5036857;28;20384;-76
2024/04/03 01:14:06;;;;;;;144.63;15.27;;;;;;;;;;5036361;28;20538;-77
2024/04/03 01:16:32;;;;;;;129.45;13.20;;;;;;;;;;5003884;28;20041;-77
2024/04/03 01:18:58;;;;;;;155.20;14.85;;;;;;;;;;5036416;28;20369;-77
2024/04/03 01:21:24;;;;;;;135.50;12.88;;;;;;;;;;5036015;28;20055;-77
2024/04/03 01:23:53;;;;;;;140.07;14.23;;;;;;;;;;5036433;28;20048;-77
2024/04/03 01:26:19;;;;;;;143.55;16.27;;;;;;;;;;5019404;28;20048;-77
2024/04/03 01:28:45;;;;;;;138.77;14.98;;;;;;;;;;5036078;28;20045;-77
2024/04/03 01:31:11;;;;;;;136.15;15.18;;;;;;;;;;5035894;28;20079;-77
2024/04/03 01:33:36;;;;;;;148.52;14.32;;;;;;;;;;5036469;28;20099;-77
2024/04/03 01:36:02;;;;;;;150.15;14.85;;;;;;;;;;5036367;28;20044;-76
2024/04/03 01:38:28;;;;;;;157.55;15.82;;;;;;;;;;5035852;28;20072;-77
2024/04/03 01:40:54;;;;;;;146.88;16.90;;;;;;;;;;5019701;28;20044;-77
2024/04/03 01:43:20;;;;;;;140.90;15.85;;;;;;;;;;5052185;28;20045;-76
2024/04/03 01:45:45;;;;;;;159.52;15.57;;;;;;;;;;5035912;28;20041;-77
2024/04/03 01:48:11;;;;;;;147.23;16.75;;;;;;;;;;5051898;28;20041;-76
2024/04/03 01:50:39;;;;;;;169.70;16.60;;;;;;;;;;5019447;28;20067;-77
2024/04/03 01:53:05;;;;;;;142.13;15.90;;;;;;;;;;5035450;28;20391;-76
2024/04/03 01:55:31;;;;;;;131.43;15.02;;;;;;;;;;5019550;28;20048;-77
2024/04/03 01:57:57;;;;;;;147.93;15.90;;;;;;;;;;5036007;28;20036;-77
2024/04/03 02:00:23;;;;;;;142.27;17.23;;;;;;;;;;5019489;28;20045;-76
2024/04/03 02:02:49;;;;;;;152.75;16.65;;;;;;;;;;5032334;28;20037;-77
2024/04/03 02:05:15;;;;;;;157.82;17.17;;;;;;;;;;5015597;28;20068;-77
2024/04/03 02:07:40;;;;;;;147.32;15.93;;;;;;;;;;4999498;28;20045;-77
2024/04/03 02:10:06;;;;;;;155.23;15.90;;;;;;;;;;5015415;28;20042;-77
2024/04/03 02:12:32;;;;;;;151.52;15.27;;;;;;;;;;5015799;28;20095;-77
2024/04/03 02:14:58;;;;;;;153.93;16.00;;;;;;;;;;5015830;28;20037;-77
2024/04/03 02:17:24;;;;;;;118.93;14.02;;;;;;;;;;5015414;28;20091;-77
2024/04/03 02:19:50;;;;;;;140.02;16.10;;;;;;;;;;4999368;28;20129;-77
2024/04/03 02:22:15;;;;;;;123.70;14.00;;;;;;;;;;5015218;28;20557;-77
2024/04/03 02:24:41;;;;;;;120.28;14.48;;;;;;;;;;5015724;28;20464;-77
2024/04/03 02:27:07;;;;;;;114.63;13.30;;;;;;;;;;5014850;28;20460;-77
2024/04/03 02:29:33;;;;;;;122.38;14.55;;;;;;;;;;5015458;28;20464;-77
2024/04/03 02:31:58;;;;;;;107.03;12.93;;;;;;;;;;5015607;28;20037;-77
2024/04/03 02:34:24;;;;;;;121.10;13.93;;;;;;;;;;5015260;28;20473;-77
2024/04/03 02:36:50;;;;;;;124.03;12.05;;;;;;;;;;4999174;28;20054;-77
2024/04/03 02:39:16;;;;;;;108.03;11.15;;;;;;;;;;5014914;28;20088;-77
2024/04/03 02:41:41;;;;;;;98.47;9.57;;;;;;;;;;4999089;28;20128;-77
2024/04/03 02:44:07;;;;;;;78.50;9.70;;;;;;;;;;5014996;28;20045;-77
2024/04/03 02:46:33;;;;;;;72.15;8.10;;;;;;;;;;5015378;28;20045;-77
2024/04/03 02:48:59;;;;;;;79.85;8.48;;;;;;;;;;4999039;28;20133;-77
2024/04/03 02:51:24;;;;;;;71.55;8.43;;;;;;;;;;5047755;28;20041;-76
2024/04/03 02:53:50;;;;;;;67.75;8.32;;;;;;;;;;5015223;28;20389;-76
2024/04/03 02:56:16;;;;;;;60.92;7.35;;;;;;;;;;4998481;28;20045;-76
2024/04/03 02:58:42;;;;;;;67.75;7.65;;;;;;;;;;5000228;28;20041;-76
2024/04/03 03:01:10;;;;;;;62.97;8.45;;;;;;;;;;5034659;28;20045;-77
2024/04/03 03:03:37;;;;;;;75.83;8.07;;;;;;;;;;5034829;28;20495;-76
2024/04/03 03:06:05;;;;;;;66.40;8.18;;;;;;;;;;5018099;28;20750;-77
2024/04/03 03:08:32;;;;;;;62.63;7.25;;;;;;;;;;5051274;28;20082;-76
2024/04/03 03:10:59;;;;;;;70.90;8.52;;;;;;;;;;5035252;28;20135;-76
2024/04/03 03:13:26;;;;;;;77.95;8.40;;;;;;;;;;5022140;28;20101;-76
2024/04/03 03:15:57;;;;;;;73.20;9.48;;;;;;;;;;5006028;28;20108;-77
2024/04/03 03:18:24;;;;;;;69.85;8.40;;;;;;;;;;5038431;28;20053;-76
2024/04/03 03:20:50;;;;;;;65.30;7.53;;;;;;;;;;5038586;28;20033;-77
2024/04/03 03:23:17;;;;;;;59.00;7.25;;;;;;;;;;5038224;28;20049;-78
2024/04/03 03:25:44;;;;;;;50.88;6.47;;;;;;;;;;5038706;28;20051;-76
2024/04/03 03:28:11;;;;;;;60.88;6.72;;;;;;;;;;5037949;28;20052;-76
2024/04/03 03:30:37;;;;;;;59.40;7.28;;;;;;;;;;5038463;28;20047;-77
2024/04/03 03:33:04;;;;;;;45.15;6.13;;;;;;;;;;5038497;28;20040;-76
2024/04/03 03:35:30;;;;;;;49.65;5.82;;;;;;;;;;5038360;28;20047;-76
2024/04/03 03:37:55;;;;;;;56.05;6.10;;;;;;;;;;5021902;28;20380;-77
2024/04/03 03:40:21;;;;;;;36.92;4.47;;;;;;;;;;5037824;28;20049;-76
2024/04/03 03:42:47;;;;;;;25.85;3.13;;;;;;;;;;5038474;28;20132;-77
2024/04/03 03:45:17;;;;;;;10.02;1.50;;;;;;;;;;5021394;28;20084;-77
2024/04/03 03:47:43;;;;;;;15.02;1.58;;;;;;;;;;5038378;28;20044;-76
2024/04/03 03:52:53;;;;;;;7.75;0.95;;;;;;;;;;5038309;28;20037;-76
2024/04/03 03:55:19;;;;;;;8.05;1.60;;;;;;;;;;5037747;28;20045;-76
2024/04/03 03:57:44;;;;;;;9.27;1.73;;;;;;;;;;5021587;28;20044;-77
2024/04/03 04:00:11;;;;;;;13.85;2.00;;;;;;;;;;5020880;28;20041;-76
2024/04/03 04:02:37;;;;;;;9.13;1.80;;;;;;;;;;5054616;28;20395;-77
2024/04/03 04:05:03;;;;;;;20.25;3.42;;;;;;;;;;5037957;28;20039;-76
2024/04/03 04:07:28;;;;;;;18.95;2.38;;;;;;;;;;5020834;28;20052;-77
2024/04/03 04:09:54;;;;;;;26.67;3.60;;;;;;;;;;5021146;28;20037;-76
2024/04/03 04:12:20;;;;;;;30.33;2.75;;;;;;;;;;5037446;28;20396;-77
2024/04/03 04:14:51;;;;;;;23.10;3.15;;;;;;;;;;5021439;28;20459;-76
2024/04/03 04:17:18;;;;;;;25.88;2.83;;;;;;;;;;5053779;28;20051;-77
2024/04/03 04:19:45;;;;;;;29.98;3.10;;;;;;;;;;5021120;28;20086;-77
2024/04/03 04:22:11;;;;;;;31.02;3.70;;;;;;;;;;5020150;28;20051;-76
2024/04/03 04:24:38;;;;;;;21.55;2.28;;;;;;;;;;5037509;28;20041;-76
2024/04/03 04:27:07;;;;;;;25.98;2.80;;;;;;;;;;5036990;28;20040;-77
2024/04/03 04:29:35;;;;;;;19.35;2.47;;;;;;;;;;5000963;28;20510;-77
2024/04/03 04:32:03;;;;;;;30.13;3.05;;;;;;;;;;5001309;28;20071;-76
2024/04/03 04:34:29;;;;;;;27.05;2.85;;;;;;;;;;5001223;28;20051;-80
2024/04/03 04:36:55;;;;;;;30.63;3.35;;;;;;;;;;5017480;28;20045;-79
2024/04/03 04:39:20;;;;;;;27.90;2.50;;;;;;;;;;5000669;28;20116;-76
2024/04/03 04:41:50;;;;;;;35.03;3.03;;;;;;;;;;5017574;28;20503;-76
2024/04/03 04:44:17;;;;;;;34.70;2.90;;;;;;;;;;5000704;28;20503;-76
2024/04/03 04:46:46;;;;;;;22.67;2.80;;;;;;;;;;5000937;28;20061;-76
2024/04/03 04:49:12;;;;;;;24.58;2.75;;;;;;;;;;5016730;28;20430;-76
2024/04/03 04:51:38;;;;;;;35.33;3.47;;;;;;;;;;5016917;28;20049;-76
2024/04/03 04:54:04;;;;;;;24.23;2.92;;;;;;;;;;5000227;28;20045;-75
2024/04/03 04:56:30;;;;;;;25.13;3.45;;;;;;;;;;5017069;28;20082;-76
2024/04/03 04:58:55;;;;;;;22.08;2.58;;;;;;;;;;5017116;28;20045;-76
2024/04/03 05:01:21;;;;;;;16.55;2.78;;;;;;;;;;5016653;28;20061;-76
2024/04/03 05:03:47;;;;;;;22.33;2.70;;;;;;;;;;5016835;28;20423;-76
2024/04/03 05:06:17;;;;;;;24.33;2.10;;;;;;;;;;5000114;28;20037;-76
2024/04/03 05:08:43;;;;;;;25.88;2.60;;;;;;;;;;5000475;28;20060;-75
2024/04/03 05:11:09;;;;;;;15.43;2.10;;;;;;;;;;5016583;28;20046;-76
2024/04/03 05:13:35;;;;;;;24.55;2.50;;;;;;;;;;5000563;28;20047;-76
2024/04/03 05:16:09;;;;;;;17.88;2.22;;;;;;;;;;5017008;28;20460;-76
2024/04/03 05:18:35;;;;;;;11.77;2.58;;;;;;;;;;5000166;28;20037;-76
2024/04/03 05:21:02;;;;;;;21.38;1.70;;;;;;;;;;4984085;28;20049;-76
2024/04/03 05:23:29;;;;;;;16.45;2.60;;;;;;;;;;5016321;28;20110;-76
2024/04/03 05:26:00;;;;;;;18.63;2.50;;;;;;;;;;5024109;28;20074;-76
2024/04/03 05:28:26;;;;;;;18.00;2.85;;;;;;;;;;5019205;28;20043;-76
2024/04/03 05:30:53;;;;;;;23.45;2.40;;;;;;;;;;5019814;28;20438;-75
2024/04/03 05:33:20;;;;;;;18.65;2.38;;;;;;;;;;5035316;28;20041;-76
2024/04/03 05:35:56;;;;;;;23.40;2.90;;;;;;;;;;5002868;28;20047;-76
2024/04/03 05:38:22;;;;;;;19.92;2.92;;;;;;;;;;5035814;28;20049;-76
2024/04/03 05:40:52;;;;;;;24.58;2.75;;;;;;;;;;5036042;28;20475;-76
2024/04/03 05:43:18;;;;;;;20.45;3.05;;;;;;;;;;5002825;28;20041;-76
2024/04/03 05:45:44;;;;;;;25.48;2.85;;;;;;;;;;5019616;28;20071;-76
2024/04/03 05:48:11;;;;;;;13.85;2.45;;;;;;;;;;5068722;28;20049;-76
2024/04/03 05:50:36;;;;;;;30.08;2.58;;;;;;;;;;5019599;28;20463;-76
2024/04/03 05:53:03;;;;;;;19.38;2.78;;;;;;;;;;5019545;28;20048;-75
2024/04/03 05:55:29;;;;;;;19.40;2.38;;;;;;;;;;5018870;28;20040;-76
2024/04/03 05:57:55;;;;;;;18.50;2.13;;;;;;;;;;5016995;28;20036;-76
2024/04/03 06:00:21;;;;;;;19.98;2.22;;;;;;;;;;5035770;28;20095;-76
2024/04/03 06:02:46;;;;;;;14.68;1.88;;;;;;;;;;5035859;28;20047;-76
2024/04/03 06:05:12;;;;;;;12.48;1.63;;;;;;;;;;5035058;28;20037;-76
2024/04/03 06:07:38;;;;;;;14.30;1.83;;;;;;;;;;5019165;28;20460;-80
2024/04/03 06:10:05;;;;;;;21.23;2.35;;;;;;;;;;5019155;28;20041;-76
2024/04/03 06:12:31;;;;;;;21.23;2.72;;;;;;;;;;5035215;28;20523;-76
2024/04/03 06:14:57;;;;;;;11.80;1.60;;;;;;;;;;5035749;28;20128;-76
2024/04/03 06:17:23;;;;;;;15.32;2.17;;;;;;;;;;5034927;28;20044;-76
2024/04/03 06:19:49;;;;;;;16.85;2.25;;;;;;;;;;5035365;28;20097;-76
2024/04/03 06:22:14;;;;;;;16.63;1.88;;;;;;;;;;5068067;28;20052;-76
2024/04/03 06:24:40;;;;;;;16.27;2.08;;;;;;;;;;5018839;28;20091;-77
2024/04/03 06:27:06;;;;;;;19.60;2.42;;;;;;;;;;5034731;28;20435;-76
2024/04/03 06:29:32;;;;;;;14.48;2.28;;;;;;;;;;5035193;28;20044;-75
2024/04/03 06:31:58;;;;;;;15.23;1.83;;;;;;;;;;5035417;28;20048;-76
2024/04/03 06:34:24;;;;;;;17.17;2.63;;;;;;;;;;5034845;28;20053;-76
2024/04/03 06:36:50;;;;;;;17.35;2.25;;;;;;;;;;5018641;28;20048;-75
2024/04/03 06:39:16;;;;;;;15.55;2.55;;;;;;;;;;5034560;28;20086;-76
2024/04/03 06:41:42;;;;;;;23.42;2.88;;;;;;;;;;5035113;28;20124;-75
2024/04/03 06:44:07;;;;;;;18.35;1.98;;;;;;;;;;5034520;28;20061;-76
2024/04/03 06:46:33;;;;;;;17.00;2.40;;;;;;;;;;5018437;28;20045;-76
2024/04/03 06:48:59;;;;;;;16.15;2.35;;;;;;;;;;5018156;28;20040;-76
2024/04/03 06:51:25;;;;;;;17.00;2.60;;;;;;;;;;5018120;28;20071;-76
2024/04/03 06:53:50;;;;;;;18.15;2.63;;;;;;;;;;5034895;28;20071;-76
2024/04/03 06:56:16;;;;;;;17.65;2.20;;;;;;;;;;5018116;28;20407;-76
2024/04/03 06:58:43;;;;;;;12.98;1.92;;;;;;;;;;5034796;28;20037;-76
2024/04/03 07:01:13;;;;;;;10.98;1.80;;;;;;;;;;5034511;28;20041;-76
2024/04/03 07:03:39;;;;;;;10.75;1.75;;;;;;;;;;5018645;28;20040;-76
2024/04/03 07:06:06;;;;;;;9.73;1.85;;;;;;;;;;5034489;28;20061;-76
2024/04/03 07:08:32;;;;;;;18.38;1.65;;;;;;;;;;5018343;28;20040;-75
2024/04/03 07:10:58;;;;;;;16.27;1.80;;;;;;;;;;5018359;28;20049;-75
2024/04/03 07:13:24;;;;;;;16.83;1.98;;;;;;;;;;5034173;28;20071;-75
2024/04/03 07:15:51;;;;;;;12.55;1.92;;;;;;;;;;5034669;28;20040;-76
2024/04/03 07:18:17;;;;;;;9.70;1.60;;;;;;;;;;5034421;28;20049;-75
2024/04/03 07:20:57;;;;;;;10.75;1.40;;;;;;;;;;5034867;28;20041;-76
2024/04/03 07:23:26;;;;;;;14.38;1.60;;;;;;;;;;5034226;28;20041;-75
2024/04/03 07:25:55;;;;;;;;;;;;;;;;;;5035197;28;20105;-76
2024/04/03 07:28:22;;;;;;;13.77;1.45;;;;;;;;;;5017272;28;20573;-75
2024/04/03 07:30:48;;;;;;;15.55;2.08;;;;;;;;;;5034585;28;20044;-77
2024/04/03 07:33:14;;;;;;;14.43;1.70;;;;;;;;;;5017509;28;20045;-76
2024/04/03 07:35:40;;;;;;;11.25;1.52;;;;;;;;;;5034786;28;20045;-76
2024/04/03 07:38:06;;;;;;;10.52;1.90;;;;;;;;;;5034165;28;20041;-75
2024/04/03 07:40:35;;;;;;;13.45;2.00;;;;;;;;;;5034563;28;20051;-76
2024/04/03 07:43:01;;;;;;;12.70;2.28;;;;;;;;;;5034547;28;20041;-76
2024/04/03 07:45:27;;;;;;;18.35;2.45;;;;;;;;;;5034181;28;20551;-76
2024/04/03 07:47:53;;;;;;;16.30;2.10;;;;;;;;;;5034225;28;20045;-75
2024/04/03 07:50:20;;;;;;;10.20;2.10;;;;;;;;;;5017587;28;20037;-76
2024/04/03 07:52:45;;;;;;;19.30;2.50;;;;;;;;;;5018118;28;20041;-76
2024/04/03 07:55:13;;;;;;;18.45;1.90;;;;;;;;;;5017205;28;20052;-75
2024/04/03 07:57:39;;;;;;;14.25;2.05;;;;;;;;;;5019299;28;20450;-76
2024/04/03 08:00:08;;;;;;;11.32;2.00;;;;;;;;;;5020831;28;20499;-75
2024/04/03 08:02:41;;;;;;;18.85;2.50;;;;;;;;;;5021789;28;20080;-75
2024/04/03 08:05:13;;;;;;;13.23;1.85;;;;;;;;;;5037572;28;20361;-76
2024/04/03 08:07:40;;;;;;;13.77;1.75;;;;;;;;;;5021512;28;20044;-76
2024/04/03 08:10:07;;;;;;;19.30;2.17;;;;;;;;;;5037405;28;20040;-75
2024/04/03 08:12:35;;;;;;;15.60;2.55;;;;;;;;;;5037705;28;20617;-76
2024/04/03 08:15:01;;;;;;;16.93;2.13;;;;;;;;;;5021289;28;20040;-76
2024/04/03 08:17:27;;;;;;;15.88;2.63;;;;;;;;;;5020792;28;20539;-75
2024/04/03 08:19:54;;;;;;;16.33;2.03;;;;;;;;;;5037719;28;20040;-76
2024/04/03 08:22:21;;;;;;;13.52;2.00;;;;;;;;;;5037228;28;20545;-76
2024/04/03 08:24:48;;;;;;;16.25;2.08;;;;;;;;;;5037524;28;20090;-76
2024/04/03 08:27:14;;;;;;;16.40;1.67;;;;;;;;;;5036981;28;20471;-76
2024/04/03 08:29:43;;;;;;;17.45;1.58;;;;;;;;;;5017891;28;20048;-76
2024/04/03 08:32:09;;;;;;;11.23;2.03;;;;;;;;;;5017164;28;20049;-76
2024/04/03 08:34:35;;;;;;;17.30;1.98;;;;;;;;;;5017734;28;20091;-76
2024/04/03 08:37:01;;;;;;;14.27;2.58;;;;;;;;;;5017551;28;20041;-76
2024/04/03 08:39:27;;;;;;;9.23;1.55;;;;;;;;;;5017072;28;20058;-76
2024/04/03 08:41:57;;;;;;;12.90;2.35;;;;;;;;;;5017505;28;20042;-76
2024/04/03 08:44:24;;;;;;;12.40;1.67;;;;;;;;;;5017084;28;20037;-75
2024/04/03 08:46:53;;;;;;;9.88;1.42;;;;;;;;;;5017327;28;20045;-76
2024/04/03 08:49:19;;;;;;;13.77;1.58;;;;;;;;;;5016714;28;20049;-75
2024/04/03 08:52:01;;;;;;;12.30;1.98;;;;;;;;;;5017245;28;20056;-76
2024/04/03 08:54:27;;;;;;;17.02;2.35;;;;;;;;;;5000679;28;20045;-75
2024/04/03 08:56:58;;;;;;;8.85;1.60;;;;;;;;;;5017261;28;20041;-75
2024/04/03 08:59:24;;;;;;;12.88;1.80;;;;;;;;;;5000323;28;20064;-75
2024/04/03 09:01:51;;;;;;;14.98;1.80;;;;;;;;;;5017207;28;20041;-75
2024/04/03 09:04:18;;;;;;;10.68;1.70;;;;;;;;;;5016808;28;20049;-76
2024/04/03 09:06:44;;;;;;;11.05;1.60;;;;;;;;;;5000853;28;20496;-74
2024/04/03 09:09:27;;;;;;;12.00;2.00;;;;;;;;;;5032529;28;20041;-76
2024/04/03 09:12:03;;;;;;;9.40;1.30;;;;;;;;;;5016910;28;20550;-75
2024/04/03 09:14:29;;;;;;;10.95;1.50;;;;;;;;;;5000212;28;20037;-75
2024/04/03 09:17:02;;;;;;;9.98;1.42;;;;;;;;;;5016754;28;20111;-75
2024/04/03 09:19:29;;;;;;;12.57;1.73;;;;;;;;;;5016197;28;20044;-76
2024/04/03 09:21:57;;;;;;;15.52;1.60;;;;;;;;;;5016844;28;20379;-76
2024/04/03 09:24:24;;;;;;;13.70;1.52;;;;;;;;;;4999869;28;20049;-75
2024/04/03 09:26:51;;;;;;;12.68;1.70;;;;;;;;;;5015053;28;20045;-76
2024/04/03 09:29:18;;;;;;;13.07;1.80;;;;;;;;;;5052169;28;20045;-75
2024/04/03 09:31:45;;;;;;;11.10;1.38;;;;;;;;;;5036423;28;20045;-76
2024/04/03 09:34:12;;;;;;;10.80;1.65;;;;;;;;;;5035848;28;20098;-75
2024/04/03 09:36:38;;;;;;;10.13;1.50;;;;;;;;;;5003498;28;20041;-76
2024/04/03 09:39:05;;;;;;;8.70;1.00;;;;;;;;;;5035866;28;20049;-74
2024/04/03 09:41:32;;;;;;;9.95;2.05;;;;;;;;;;5036119;28;20045;-76
2024/04/03 09:44:00;;;;;;;7.88;1.30;;;;;;;;;;5019736;28;20033;-77
2024/04/03 09:46:46;;;;;;;10.50;1.80;;;;;;;;;;5035948;28;20045;-76
2024/04/03 09:49:13;;;;;;;9.20;1.52;;;;;;;;;;5019337;28;20288;-75
2024/04/03 09:51:39;;;;;;;7.13;1.10;;;;;;;;;;5019547;28;20053;-76
2024/04/03 09:54:07;;;;;;;14.00;1.70;;;;;;;;;;5035668;28;20102;-76
2024/04/03 09:56:33;;;;;;;17.05;1.55;;;;;;;;;;5035842;28;20077;-76
2024/04/03 09:59:02;;;;;;;8.20;1.35;;;;;;;;;;5035537;28;20037;-76
2024/04/03 10:01:30;;;;;;;11.45;1.60;;;;;;;;;;5035361;28;20045;-76
2024/04/03 10:04:03;;;;;;;13.48;1.60;;;;;;;;;;5019403;28;20045;-76
2024/04/03 10:06:38;;;;;;;11.23;1.92;;;;;;;;;;5019121;28;20045;-75
2024/04/03 10:09:20;;;;;;;10.85;1.33;;;;;;;;;;5002214;28;20087;-76
2024/04/03 10:11:52;;;;;;;9.48;1.33;;;;;;;;;;5019137;28;20048;-75
2024/04/03 10:14:39;;;;;;;19.48;1.90;;;;;;;;;;5002212;28;20048;-75
2024/04/03 10:17:13;;;;;;;9.82;2.10;;;;;;;;;;5035147;28;20044;-75
2024/04/03 10:19:44;;;;;;;20.20;1.67;;;;;;;;;;5068307;28;20036;-76
2024/04/03 10:22:14;;;;;;;8.75;1.50;;;;;;;;;;5018630;28;20091;-75
2024/04/03 10:24:44;;;;;;;9.88;1.40;;;;;;;;;;5035361;28;20041;-76
2024/04/03 10:27:10;;;;;;;5.50;1.33;;;;;;;;;;5018479;28;20037;-75
2024/04/03 10:29:39;;;;;;;10.75;1.25;;;;;;;;;;5018627;28;20378;-76
2024/04/03 10:32:04;;;;;;;10.02;1.08;;;;;;;;;;5018080;28;20480;-75
2024/04/03 10:34:32;;;;;;;8.00;1.50;;;;;;;;;;5035119;28;20103;-76
2024/04/03 10:36:59;;;;;;;9.32;1.13;;;;;;;;;;5051790;28;20377;-76
2024/04/03 10:39:25;;;;;;;11.25;1.85;;;;;;;;;;5051298;28;20045;-76
2024/04/03 10:41:58;;;;;;;9.75;1.23;;;;;;;;;;5018703;28;20086;-75
2024/04/03 10:44:24;;;;;;;9.32;1.60;;;;;;;;;;5034443;28;20484;-75
2024/04/03 10:46:49;;;;;;;9.70;1.50;;;;;;;;;;5018233;28;20052;-75
2024/04/03 10:49:15;;;;;;;10.40;1.63;;;;;;;;;;5017936;28;20469;-75
2024/04/03 10:51:41;;;;;;;11.10;1.40;;;;;;;;;;5035182;28;20048;-75
2024/04/03 10:54:09;;;;;;;12.55;1.67;;;;;;;;;;5034497;28;20037;-76
2024/04/03 10:56:35;;;;;;;12.70;1.30;;;;;;;;;;5018484;28;20045;-75
2024/04/03 10:59:01;;;;;;;5.00;1.20;;;;;;;;;;5034745;28;20124;-75
2024/04/03 11:01:29;;;;;;;5.53;1.27;;;;;;;;;;5034341;28;20143;-75
2024/04/03 11:03:55;;;;;;;9.15;1.40;;;;;;;;;;5034745;28;20095;-75
2024/04/03 11:06:23;;;;;;;6.43;1.27;;;;;;;;;;5034111;28;20563;-76
2024/04/03 11:08:49;;;;;;;7.77;1.20;;;;;;;;;;5034677;28;20041;-76
2024/04/03 11:11:14;;;;;;;9.95;1.27;;;;;;;;;;5034269;28;20669;-76
2024/04/03 11:13:47;;;;;;;8.82;1.23;;;;;;;;;;5035071;28;20041;-76
2024/04/03 11:16:13;;;;;;;8.13;1.25;;;;;;;;;;5034335;28;20049;-75
2024/04/03 11:18:39;;;;;;;6.88;1.35;;;;;;;;;;5034787;28;20037;-75
2024/04/03 11:21:07;;;;;;;8.00;1.27;;;;;;;;;;5034204;28;20048;-76
2024/04/03 11:23:33;;;;;;;6.47;0.88;;;;;;;;;;5018493;28;20040;-76
2024/04/03 11:25:59;;;;;;;4.88;0.70;;;;;;;;;;5001895;28;20036;-75
2024/04/03 11:28:25;;;;;;;5.13;0.70;;;;;;;;;;5004076;28;20034;-75
2024/04/03 11:30:51;;;;;;;8.45;1.00;;;;;;;;;;5020397;28;20137;-75
2024/04/03 11:33:17;;;;;;;9.68;1.02;;;;;;;;;;5028709;28;20110;-75
2024/04/03 11:35:42;;;;;;;6.90;0.95;;;;;;;;;;5038680;28;20045;-75
2024/04/03 11:38:09;;;;;;;6.00;0.80;;;;;;;;;;5021525;28;20427;-76
2024/04/03 11:40:34;;;;;;;7.57;1.00;;;;;;;;;;5054818;28;20383;-76
2024/04/03 11:43:00;;;;;;;7.72;1.00;;;;;;;;;;5005604;28;20060;-76
2024/04/03 11:45:26;;;;;;;4.18;0.80;;;;;;;;;;5021346;28;20048;-75
2024/04/03 11:47:52;;;;;;;8.70;1.17;;;;;;;;;;5038286;28;20067;-75
2024/04/03 11:50:17;;;;;;;6.53;1.27;;;;;;;;;;5037792;28;20041;-75
2024/04/03 11:52:43;;;;;;;7.72;1.67;;;;;;;;;;5038330;28;20167;-75
2024/04/03 11:55:10;;;;;;;8.27;1.48;;;;;;;;;;5021106;28;20447;-76
2024/04/03 11:57:37;;;;;;;13.93;1.33;;;;;;;;;;5038170;28;20541;-75
2024/04/03 12:00:05;;;;;;;14.05;1.33;;;;;;;;;;5034595;28;20037;-76
2024/04/03 12:02:31;;;;;;;9.40;1.08;;;;;;;;;;5017361;28;20112;-77
2024/04/03 12:04:56;;;;;;;5.25;1.00;;;;;;;;;;5034577;28;20057;-76
2024/04/03 12:07:22;;;;;;;9.40;1.50;;;;;;;;;;5034115;28;20041;-75
2024/04/03 12:09:48;;;;;;;11.00;1.20;;;;;;;;;;5033898;28;20054;-77
2024/04/03 12:12:15;;;;;;;6.70;1.08;;;;;;;;;;5016969;28;20120;-76
2024/04/03 12:14:43;;;;;;;6.65;1.08;;;;;;;;;;5027738;28;20051;-75
2024/04/03 12:17:09;;;;;;;14.47;1.33;;;;;;;;;;5023724;28;20045;-75
2024/04/03 12:19:44;;;;;;;9.35;1.63;;;;;;;;;;5043341;28;20282;-75
2024/04/03 12:22:14;;;;;;;11.35;1.75;;;;;;;;;;5025756;28;20109;-76
2024/04/03 12:24:41;;;;;;;7.30;0.80;;;;;;;;;;5018589;28;20050;-76
2024/04/03 12:27:06;;;;;;;7.65;1.25;;;;;;;;;;5008000;28;20048;-75
2024/04/03 12:29:32;;;;;;;9.38;1.00;;;;;;;;;;5026408;28;20038;-76
2024/04/03 12:31:59;;;;;;;7.80;1.20;;;;;;;;;;5026694;28;20033;-76
2024/04/03 12:34:25;;;;;;;4.25;0.90;;;;;;;;;;5044241;28;20044;-76
2024/04/03 12:36:50;;;;;;;7.32;1.00;;;;;;;;;;5042550;28;20095;-76
2024/04/03 12:39:17;;;;;;;5.93;0.80;;;;;;;;;;5042608;28;20136;-75
2024/04/03 12:41:42;;;;;;;5.75;1.25;;;;;;;;;;5044339;28;20136;-76
2024/04/03 12:44:08;;;;;;;8.55;1.55;;;;;;;;;;5039836;28;20041;-75
2024/04/03 12:46:34;;;;;;;7.85;0.85;;;;;;;;;;5027010;28;20044;-76
2024/04/03 12:49:00;;;;;;;4.75;0.70;;;;;;;;;;5043743;28;20460;-76
2024/04/03 12:51:25;;;;;;;5.68;1.02;;;;;;;;;;5039622;28;20067;-76
2024/04/03 12:53:51;;;;;;;6.53;1.33;;;;;;;;;;5000966;28;20559;-76
2024/04/03 12:56:17;;;;;;;11.10;1.25;;;;;;;;;;5033122;28;20049;-76
2024/04/03 12:58:43;;;;;;;8.55;1.00;;;;;;;;;;5051457;28;20034;-76
2024/04/03 13:01:09;;;;;;;10.32;1.15;;;;;;;;;;5019945;28;20041;-76
2024/04/03 13:03:35;;;;;;;8.93;1.33;;;;;;;;;;5020503;28;20052;-75
2024/04/03 13:06:01;;;;;;;9.80;1.23;;;;;;;;;;5036837;28;20083;-76
2024/04/03 13:08:27;;;;;;;9.27;1.33;;;;;;;;;;5019747;28;20061;-75
2024/04/03 13:10:53;;;;;;;13.20;1.25;;;;;;;;;;5036570;28;20041;-76
2024/04/03 13:13:19;;;;;;;5.15;0.88;;;;;;;;;;5036169;28;20037;-75
2024/04/03 13:15:45;;;;;;;13.07;1.23;;;;;;;;;;5036803;28;20037;-76
2024/04/03 13:18:10;;;;;;;9.55;1.20;;;;;;;;;;5035887;28;20163;-76
2024/04/03 13:20:36;;;;;;;6.88;1.48;;;;;;;;;;5036759;28;20098;-76
2024/04/03 13:23:03;;;;;;;8.32;1.40;;;;;;;;;;5036651;28;20049;-75
2024/04/03 13:25:29;;;;;;;7.70;1.23;;;;;;;;;;5019965;28;20495;-76
2024/04/03 13:27:56;;;;;;;7.35;1.70;;;;;;;;;;5040706;28;20086;-76
2024/04/03 13:30:22;;;;;;;7.65;1.20;;;;;;;;;;5068938;28;20041;-76
2024/04/03 13:32:49;;;;;;;9.45;1.50;;;;;;;;;;5036211;28;20037;-76
2024/04/03 13:35:19;;;;;;;13.23;1.92;;;;;;;;;;5035760;28;20426;-76
2024/04/03 13:37:48;;;;;;;22.15;2.92;;;;;;;;;;5019839;28;20036;-76
2024/04/03 13:40:14;;;;;;;15.38;2.55;;;;;;;;;;5035777;28;20074;-76
2024/04/03 13:42:41;;;;;;;23.85;3.22;;;;;;;;;;5038038;28;20041;-76
2024/04/03 13:45:07;;;;;;;19.98;3.60;;;;;;;;;;5027171;28;20547;-76
2024/04/03 13:47:33;;;;;;;27.60;3.72;;;;;;;;;;5027772;28;21410;-76
2024/04/03 13:49:59;;;;;;;28.20;3.85;;;;;;;;;;5026623;28;20041;-76
2024/04/03 13:52:25;;;;;;;28.40;3.63;;;;;;;;;;5044320;28;20124;-75
2024/04/03 13:54:52;;;;;;;29.77;4.28;;;;;;;;;;5044254;28;20066;-76
2024/04/03 13:57:19;;;;;;;33.33;4.68;;;;;;;;;;5042060;28;20044;-76
2024/04/03 13:59:47;;;;;;;35.33;5.22;;;;;;;;;;5032467;28;20415;-76
2024/04/03 14:02:13;;;;;;;39.13;5.50;;;;;;;;;;5065036;28;20042;-76
2024/04/03 14:04:40;;;;;;;39.65;5.85;;;;;;;;;;5016070;28;20037;-75
2024/04/03 14:07:06;;;;;;;34.13;5.00;;;;;;;;;;5031833;28;20043;-76
2024/04/03 14:09:32;;;;;;;48.05;5.93;;;;;;;;;;5031905;28;20099;-75
2024/04/03 14:11:58;;;;;;;49.55;6.85;;;;;;;;;;5048713;28;20420;-76
2024/04/03 14:14:24;;;;;;;51.42;7.95;;;;;;;;;;5031857;28;20048;-75
2024/04/03 14:16:52;;;;;;;40.17;6.20;;;;;;;;;;5032372;28;20048;-75
2024/04/03 14:19:18;;;;;;;50.00;7.13;;;;;;;;;;5015358;28;20048;-76
2024/04/03 14:21:44;;;;;;;46.30;7.28;;;;;;;;;;5032128;28;20041;-76
2024/04/03 14:24:10;;;;;;;45.88;6.75;;;;;;;;;;5031695;28;20544;-76
2024/04/03 14:26:36;;;;;;;55.65;7.13;;;;;;;;;;5031959;28;20052;-76
2024/04/03 14:29:02;;;;;;;57.53;8.02;;;;;;;;;;5048172;28;20045;-76